createdAt,value
2018-07-09T00:00:29.288Z,10.23
2018-07-09T00:02:57.751Z,11.73
2018-07-09T00:05:26.127Z,9.40
2018-07-09T00:07:54.843Z,10.90
2018-07-09T00:10:34.621Z,10.30
2018-07-09T00:13:03.019Z,9.17
2018-07-09T00:15:31.411Z,9.13
2018-07-09T00:17:59.807Z,9.77
2018-07-09T00:20:28.247Z,7.90
2018-07-09T00:22:56.651Z,8.60
2018-07-09T00:25:25.127Z,9.53
2018-07-09T00:27:53.527Z,8.00
2018-07-09T00:30:21.906Z,7.43
2018-07-09T00:32:50.295Z,6.70
2018-07-09T00:35:18.678Z,6.50
2018-07-09T00:37:47.066Z,5.67
2018-07-09T00:40:15.452Z,5.80
2018-07-09T00:42:43.852Z,5.47
2018-07-09T00:45:12.237Z,5.70
2018-07-09T00:47:40.640Z,5.60
2018-07-09T00:50:09.017Z,4.77
2018-07-09T00:52:37.431Z,5.50
2018-07-09T00:55:05.927Z,5.67
2018-07-09T00:57:34.578Z,5.57
2018-07-09T01:00:03.013Z,5.20
2018-07-09T01:02:31.526Z,4.73
2018-07-09T01:04:59.918Z,5.07
2018-07-09T01:07:28.303Z,5.00
2018-07-09T01:09:56.786Z,5.10
2018-07-09T01:12:25.163Z,5.10
2018-07-09T01:14:53.563Z,4.13
2018-07-09T01:17:21.953Z,4.50
2018-07-09T01:19:50.409Z,4.53
2018-07-09T01:22:18.779Z,4.80
2018-07-09T01:24:47.179Z,4.30
2018-07-09T01:27:15.584Z,4.47
2018-07-09T01:29:43.983Z,4.87
2018-07-09T01:32:12.375Z,4.63
2018-07-09T01:34:40.770Z,4.40
2018-07-09T01:37:09.148Z,4.43
2018-07-09T01:39:37.551Z,4.10
2018-07-09T01:42:05.931Z,4.53
2018-07-09T01:44:34.302Z,3.73
2018-07-09T01:47:02.701Z,3.80
2018-07-09T01:49:31.071Z,3.90
2018-07-09T01:51:59.507Z,4.80
2018-07-09T01:54:27.879Z,4.77
2018-07-09T01:56:56.283Z,4.90
2018-07-09T01:59:24.662Z,4.13
2018-07-09T02:01:53.063Z,4.70
2018-07-09T02:04:21.443Z,4.70
2018-07-09T02:06:49.851Z,5.63
2018-07-09T02:09:18.245Z,3.67
2018-07-09T02:11:46.643Z,4.10
2018-07-09T02:14:15.017Z,4.90
2018-07-09T02:16:43.615Z,5.20
2018-07-09T02:19:11.990Z,4.40
2018-07-09T02:21:40.372Z,4.10
2018-07-09T02:24:08.764Z,3.30
2018-07-09T02:26:38.727Z,5.00
2018-07-09T02:29:07.123Z,3.93
2018-07-09T02:31:35.503Z,4.40
2018-07-09T02:34:03.904Z,4.60
2018-07-09T02:36:32.275Z,4.10
2018-07-09T02:39:00.674Z,4.80
2018-07-09T02:41:29.055Z,4.87
2018-07-09T02:43:57.461Z,4.93
2018-07-09T02:46:25.834Z,4.10
2018-07-09T02:48:54.223Z,5.17
2018-07-09T02:51:22.603Z,4.70
2018-07-09T02:53:50.999Z,4.33
2018-07-09T02:56:19.371Z,5.03
2018-07-09T02:58:47.785Z,5.17
2018-07-09T03:01:16.177Z,5.10
2018-07-09T03:03:44.579Z,5.43
2018-07-09T03:06:12.995Z,5.43
2018-07-09T03:08:41.405Z,5.27
2018-07-09T03:11:09.803Z,5.13
2018-07-09T03:13:38.182Z,5.70
2018-07-09T03:16:06.630Z,6.90
2018-07-09T03:18:35.091Z,5.10
2018-07-09T03:21:03.482Z,4.77
2018-07-09T03:23:31.856Z,4.33
2018-07-09T03:26:00.260Z,5.23
2018-07-09T03:28:28.625Z,5.23
2018-07-09T03:30:57.018Z,6.80
2018-07-09T03:33:25.395Z,6.00
2018-07-09T03:35:53.795Z,5.10
2018-07-09T03:38:22.170Z,4.57
2018-07-09T03:40:50.561Z,4.83
2018-07-09T03:43:18.965Z,4.43
2018-07-09T03:45:47.335Z,5.13
2018-07-09T03:48:15.735Z,4.63
2018-07-09T03:50:44.108Z,4.63
2018-07-09T03:53:12.516Z,6.37
2018-07-09T03:55:40.878Z,4.03
2018-07-09T03:58:09.263Z,5.00
2018-07-09T04:00:37.642Z,4.73
2018-07-09T04:03:06.030Z,4.33
2018-07-09T04:05:34.433Z,5.00
2018-07-09T04:08:02.826Z,4.90
2018-07-09T04:10:31.214Z,4.90
2018-07-09T04:12:59.616Z,4.70
2018-07-09T04:15:27.991Z,4.40
2018-07-09T04:17:56.392Z,4.03
2018-07-09T04:20:24.767Z,4.50
2018-07-09T04:22:53.282Z,4.27
2018-07-09T04:25:21.646Z,4.00
2018-07-09T04:27:50.046Z,3.73
2018-07-09T04:30:18.467Z,4.03
2018-07-09T04:32:46.840Z,4.20
2018-07-09T04:35:15.235Z,3.60
2018-07-09T04:37:43.619Z,3.30
2018-07-09T04:40:12.028Z,3.57
2018-07-09T04:42:40.403Z,3.30
2018-07-09T04:45:08.803Z,3.80
2018-07-09T04:47:37.271Z,3.90
2018-07-09T04:50:06.340Z,3.70
2018-07-09T04:52:34.715Z,3.87
2018-07-09T04:55:03.112Z,4.37
2018-07-09T04:57:31.491Z,3.40
2018-07-09T04:59:59.887Z,3.60
2018-07-09T05:02:28.289Z,3.90
2018-07-09T05:04:56.688Z,3.50
2018-07-09T05:07:25.060Z,3.53
2018-07-09T05:09:53.479Z,4.07
2018-07-09T05:12:21.851Z,3.40
2018-07-09T05:14:50.271Z,3.90
2018-07-09T05:17:18.641Z,3.43
2018-07-09T05:19:47.006Z,3.43
2018-07-09T05:22:15.399Z,3.20
2018-07-09T05:24:43.784Z,4.10
2018-07-09T05:27:12.194Z,4.23
2018-07-09T05:29:40.572Z,3.47
2018-07-09T05:32:08.971Z,3.50
2018-07-09T05:34:37.343Z,3.30
2018-07-09T05:37:05.758Z,3.23
2018-07-09T05:39:34.117Z,4.67
2018-07-09T05:42:02.512Z,3.50
2018-07-09T05:44:31.107Z,3.20
2018-07-09T05:46:59.528Z,3.47
2018-07-09T05:49:27.910Z,4.40
2018-07-09T05:51:56.536Z,3.77
2018-07-09T05:54:24.910Z,4.20
2018-07-09T05:56:53.655Z,3.87
2018-07-09T05:59:22.014Z,3.30
2018-07-09T06:01:50.413Z,3.53
2018-07-09T06:04:18.827Z,3.67
2018-07-09T06:06:47.228Z,4.07
2018-07-09T06:09:15.631Z,3.40
2018-07-09T06:11:44.029Z,4.20
2018-07-09T06:14:12.411Z,3.80
2018-07-09T06:16:40.803Z,4.00
2018-07-09T06:19:09.179Z,4.07
2018-07-09T06:21:37.575Z,4.03
2018-07-09T06:24:06.074Z,4.10
2018-07-09T06:26:34.476Z,3.37
2018-07-09T06:29:02.863Z,3.53
2018-07-09T06:31:31.253Z,3.87
2018-07-09T06:33:59.659Z,4.10
2018-07-09T06:36:28.029Z,3.47
2018-07-09T06:38:56.650Z,3.77
2018-07-09T06:41:25.209Z,3.40
2018-07-09T06:43:53.598Z,3.90
2018-07-09T06:46:21.976Z,3.70
2018-07-09T06:48:50.384Z,2.83
2018-07-09T06:51:18.781Z,3.30
2018-07-09T06:53:47.183Z,3.73
2018-07-09T06:56:15.549Z,3.87
2018-07-09T06:58:43.966Z,4.20
2018-07-09T07:01:12.339Z,3.90
2018-07-09T07:03:40.743Z,4.00
2018-07-09T07:06:09.109Z,4.60
2018-07-09T07:08:37.588Z,3.87
2018-07-09T07:11:06.311Z,3.37
2018-07-09T07:13:34.730Z,4.40
2018-07-09T07:16:03.106Z,3.60
2018-07-09T07:18:31.511Z,4.07
2018-07-09T07:20:59.949Z,4.30
2018-07-09T07:23:28.308Z,3.60
2018-07-09T07:25:56.707Z,3.43
2018-07-09T07:28:25.086Z,4.20
2018-07-09T07:30:53.518Z,4.00
2018-07-09T07:33:22.308Z,4.20
2018-07-09T07:35:50.716Z,3.60
2018-07-09T07:38:19.103Z,3.93
2018-07-09T07:40:47.511Z,3.47
2018-07-09T07:43:15.906Z,3.90
2018-07-09T07:45:44.307Z,3.97
2018-07-09T07:48:12.702Z,3.60
2018-07-09T07:50:41.167Z,4.00
2018-07-09T07:53:09.534Z,3.43
2018-07-09T07:55:38.014Z,4.63
2018-07-09T07:58:06.391Z,3.87
2018-07-09T08:00:34.782Z,3.37
2018-07-09T08:03:03.244Z,3.17
2018-07-09T08:05:31.590Z,3.23
2018-07-09T08:07:59.972Z,2.87
2018-07-09T08:10:28.411Z,2.50
2018-07-09T08:13:01.004Z,3.50
2018-07-09T08:15:25.263Z,3.17
2018-07-09T08:17:53.676Z,3.10
2018-07-09T08:20:22.066Z,3.37
2018-07-09T08:22:50.470Z,2.97
2018-07-09T08:25:18.979Z,2.60
2018-07-09T08:27:47.313Z,2.73
2018-07-09T08:30:15.730Z,3.50
2018-07-09T08:32:44.127Z,3.33
2018-07-09T08:35:12.507Z,2.70
2018-07-09T08:37:40.907Z,3.97
2018-07-09T08:40:09.283Z,3.60
2018-07-09T08:42:37.696Z,3.10
2018-07-09T08:45:06.294Z,2.90
2018-07-09T08:47:34.688Z,2.83
2018-07-09T08:50:03.187Z,3.10
2018-07-09T08:52:31.796Z,3.53
2018-07-09T08:55:00.172Z,3.40
2018-07-09T08:57:28.572Z,3.00
2018-07-09T08:59:56.995Z,3.00
2018-07-09T09:02:25.391Z,3.97
2018-07-09T09:04:53.779Z,4.00
2018-07-09T09:07:22.180Z,4.07
2018-07-09T09:09:50.643Z,3.93
2018-07-09T09:12:19.109Z,4.07
2018-07-09T09:14:47.483Z,3.90
2018-07-09T09:17:15.896Z,4.07
2018-07-09T09:19:44.271Z,4.20
2018-07-09T09:22:12.697Z,4.20
2018-07-09T09:24:41.083Z,3.60
2018-07-09T09:27:09.488Z,4.27
2018-07-09T09:29:37.863Z,3.57
2018-07-09T09:32:06.274Z,4.00
2018-07-09T09:34:34.655Z,4.40
2018-07-09T09:37:03.062Z,4.20
2018-07-09T09:39:31.439Z,3.90
2018-07-09T09:41:59.839Z,4.20
2018-07-09T09:44:28.213Z,4.20
2018-07-09T09:46:56.590Z,4.60
2018-07-09T09:49:25.049Z,4.43
2018-07-09T09:51:53.402Z,4.27
2018-07-09T09:54:21.802Z,3.87
2018-07-09T09:56:50.182Z,4.70
2018-07-09T09:59:18.609Z,4.33
2018-07-09T10:01:46.985Z,4.53
2018-07-09T10:04:15.394Z,4.37
2018-07-09T10:06:43.788Z,4.60
2018-07-09T10:09:12.201Z,3.20
2018-07-09T10:11:40.839Z,4.27
2018-07-09T10:14:09.243Z,5.30
2018-07-09T10:16:37.614Z,4.60
2018-07-09T10:19:06.110Z,4.73
2018-07-09T10:21:34.488Z,4.00
2018-07-09T10:24:02.892Z,3.93
2018-07-09T10:26:31.297Z,4.83
2018-07-09T10:28:59.743Z,5.10
2018-07-09T10:31:28.110Z,4.57
2018-07-09T10:33:56.504Z,4.20
2018-07-09T10:36:24.868Z,4.50
2018-07-09T10:38:53.259Z,4.07
2018-07-09T10:41:21.626Z,4.47
2018-07-09T10:43:50.059Z,4.63
2018-07-09T10:46:18.432Z,3.83
2018-07-09T10:48:46.886Z,4.80
2018-07-09T10:51:15.267Z,3.87
2018-07-09T10:53:43.665Z,4.10
2018-07-09T10:56:12.051Z,4.07
2018-07-09T10:58:40.566Z,4.50
2018-07-09T11:01:08.997Z,3.57
2018-07-09T11:03:37.398Z,4.63
2018-07-09T11:06:06.152Z,3.47
2018-07-09T11:08:34.586Z,3.73
2018-07-09T11:11:02.970Z,3.40
2018-07-09T11:13:31.559Z,3.97
2018-07-09T11:15:59.931Z,4.27
2018-07-09T11:18:28.322Z,3.73
2018-07-09T11:20:57.095Z,3.17
2018-07-09T11:23:25.839Z,3.63
2018-07-09T11:25:54.203Z,3.00
2018-07-09T11:28:22.594Z,4.00
2018-07-09T11:30:50.971Z,3.13
2018-07-09T11:33:19.359Z,3.77
2018-07-09T11:35:47.750Z,3.97
2018-07-09T11:38:16.189Z,2.70
2018-07-09T11:40:44.574Z,3.87
2018-07-09T11:43:13.004Z,3.63
2018-07-09T11:45:41.374Z,3.40
2018-07-09T11:48:09.759Z,4.37
2018-07-09T11:50:38.159Z,3.80
2018-07-09T11:53:06.534Z,3.00
2018-07-09T11:55:34.918Z,3.30
2018-07-09T11:58:03.284Z,3.50
2018-07-09T12:00:31.706Z,3.10
2018-07-09T12:03:00.072Z,3.13
2018-07-09T12:05:28.506Z,3.50
2018-07-09T12:07:56.878Z,3.83
2018-07-09T12:10:25.299Z,2.63
2018-07-09T12:12:53.689Z,3.10
2018-07-09T12:15:22.103Z,4.40
2018-07-09T12:17:50.482Z,2.93
2018-07-09T12:20:18.929Z,3.80
2018-07-09T12:22:47.311Z,3.50
2018-07-09T12:25:15.711Z,3.77
2018-07-09T12:27:44.082Z,3.17
2018-07-09T12:30:12.477Z,3.07
2018-07-09T12:32:40.852Z,3.20
2018-07-09T12:35:09.260Z,3.40
2018-07-09T12:37:37.639Z,3.07
2018-07-09T12:40:06.063Z,3.13
2018-07-09T12:42:34.439Z,3.40
2018-07-09T12:45:02.848Z,3.30
2018-07-09T12:47:31.226Z,2.83
2018-07-09T12:49:59.647Z,2.17
2018-07-09T12:52:28.034Z,2.60
2018-07-09T12:54:56.439Z,3.00
2018-07-09T12:57:24.819Z,2.60
2018-07-09T12:59:53.219Z,3.10
2018-07-09T13:02:21.603Z,2.73
2018-07-09T13:04:50.004Z,2.70
2018-07-09T13:07:18.410Z,2.50
2018-07-09T13:09:46.824Z,3.00
2018-07-09T13:12:19.362Z,2.73
2018-07-09T13:14:47.755Z,2.67
2018-07-09T13:17:16.135Z,2.20
2018-07-09T13:19:44.530Z,2.13
2018-07-09T13:22:12.919Z,2.63
2018-07-09T13:24:41.315Z,2.10
2018-07-09T13:27:09.683Z,2.67
2018-07-09T13:29:38.299Z,2.27
2018-07-09T13:32:06.692Z,2.57
2018-07-09T13:34:35.277Z,2.57
2018-07-09T13:37:04.020Z,2.10
2018-07-09T13:39:32.548Z,2.77
2018-07-09T13:42:00.920Z,2.10
2018-07-09T13:44:29.451Z,2.30
2018-07-09T13:46:58.003Z,2.23
2018-07-09T13:49:26.384Z,2.70
2018-07-09T13:51:54.799Z,2.10
2018-07-09T13:54:23.196Z,2.10
2018-07-09T13:56:51.894Z,2.63
2018-07-09T13:59:20.296Z,2.33
2018-07-09T14:01:48.682Z,2.27
2018-07-09T14:04:17.081Z,2.40
2018-07-09T14:06:45.537Z,2.00
2018-07-09T14:09:13.927Z,2.07
2018-07-09T14:11:42.644Z,2.00
2018-07-09T14:14:11.015Z,1.93
2018-07-09T14:16:39.606Z,1.90
2018-07-09T14:20:23.655Z,2.07
2018-07-09T14:22:52.045Z,2.30
2018-07-09T14:25:20.458Z,2.80
2018-07-09T14:27:48.982Z,1.77
2018-07-09T14:30:17.563Z,2.00
2018-07-09T14:32:45.967Z,2.50
2018-07-09T14:35:14.336Z,1.90
2018-07-09T14:37:42.747Z,2.53
2018-07-09T14:40:11.124Z,2.80
2018-07-09T14:42:39.543Z,3.77
2018-07-09T14:45:07.975Z,2.83
2018-07-09T14:47:36.347Z,2.50
2018-07-09T14:50:04.893Z,2.40
2018-07-09T14:52:33.273Z,2.80
2018-07-09T14:55:01.645Z,2.93
2018-07-09T14:57:30.053Z,2.60
2018-07-09T14:59:58.436Z,3.37
2018-07-09T15:02:26.844Z,3.80
2018-07-09T15:04:55.227Z,3.23
2018-07-09T15:07:24.000Z,3.00
2018-07-09T15:09:52.436Z,3.30
2018-07-09T15:12:20.823Z,3.17
2018-07-09T15:14:49.190Z,3.00
2018-07-09T15:17:17.584Z,3.10
2018-07-09T15:19:45.951Z,2.57
2018-07-09T15:22:14.349Z,3.00
2018-07-09T15:24:42.723Z,3.23
2018-07-09T15:27:11.112Z,2.73
2018-07-09T15:29:39.511Z,2.77
2018-07-09T15:32:16.413Z,2.80
2018-07-09T15:34:44.824Z,2.90
2018-07-09T15:37:13.214Z,3.60
2018-07-09T15:39:41.631Z,4.07
2018-07-09T15:42:10.059Z,3.03
2018-07-09T15:44:38.443Z,2.17
2018-07-09T15:47:07.265Z,2.33
2018-07-09T15:49:35.830Z,2.77
2018-07-09T15:52:04.222Z,2.00
2018-07-09T15:54:32.595Z,2.90
2018-07-09T15:57:00.992Z,2.33
2018-07-09T15:59:29.367Z,2.60
2018-07-09T16:01:57.763Z,2.20
2018-07-09T16:04:26.130Z,2.90
2018-07-09T16:06:54.588Z,2.87
2018-07-09T16:09:22.987Z,3.17
2018-07-09T16:11:51.395Z,2.20
2018-07-09T16:14:19.766Z,3.93
2018-07-09T16:16:48.175Z,3.37
2018-07-09T16:19:16.547Z,2.40
2018-07-09T16:21:44.954Z,3.30
2018-07-09T16:24:13.380Z,3.00
2018-07-09T16:26:41.835Z,3.23
2018-07-09T16:29:11.258Z,2.93
2018-07-09T16:31:39.558Z,2.53
2018-07-09T16:34:08.292Z,3.00
2018-07-09T16:36:36.762Z,3.40
2018-07-09T16:39:06.319Z,2.40
2018-07-09T16:41:35.131Z,2.30
2018-07-09T16:44:03.618Z,2.90
2018-07-09T16:46:32.050Z,2.50
2018-07-09T16:49:00.598Z,3.43
2018-07-09T16:51:28.971Z,2.47
2018-07-09T16:53:57.601Z,2.43
2018-07-09T16:56:25.982Z,1.87
2018-07-09T16:58:54.391Z,2.83
2018-07-09T17:01:22.815Z,2.43
2018-07-09T17:03:51.333Z,2.50
2018-07-09T17:06:19.782Z,2.83
2018-07-09T17:08:48.254Z,2.57
2018-07-09T17:11:16.633Z,2.47
2018-07-09T17:13:45.259Z,2.33
2018-07-09T17:16:13.671Z,2.63
2018-07-09T17:18:42.079Z,2.77
2018-07-09T17:21:10.468Z,3.10
2018-07-09T17:23:38.871Z,2.70
2018-07-09T17:26:07.256Z,2.40
2018-07-09T17:28:35.682Z,2.60
2018-07-09T17:31:04.063Z,2.70
2018-07-09T17:33:32.474Z,2.40
2018-07-09T17:36:00.887Z,2.67
2018-07-09T17:38:29.315Z,1.87
2018-07-09T17:40:57.783Z,2.93
2018-07-09T17:43:26.191Z,2.37
2018-07-09T17:45:54.583Z,2.13
2018-07-09T17:48:22.981Z,2.17
2018-07-09T17:50:51.419Z,2.10
2018-07-09T17:53:19.831Z,2.17
2018-07-09T17:55:48.269Z,2.10
2018-07-09T17:58:16.718Z,3.10
2018-07-09T18:00:45.096Z,3.47
2018-07-09T18:03:13.493Z,2.77
2018-07-09T18:05:41.886Z,2.67
2018-07-09T18:08:10.286Z,2.33
2018-07-09T18:10:38.717Z,2.80
2018-07-09T18:13:07.119Z,2.30
2018-07-09T18:15:35.523Z,2.90
2018-07-09T18:18:03.923Z,2.30
2018-07-09T18:20:32.303Z,2.70
2018-07-09T18:23:00.698Z,2.30
2018-07-09T18:25:29.142Z,2.87
2018-07-09T18:27:57.495Z,2.23
2018-07-09T18:30:25.880Z,2.03
2018-07-09T18:32:54.301Z,2.00
2018-07-09T18:35:22.707Z,2.50
2018-07-09T18:37:51.134Z,2.67
2018-07-09T18:40:19.514Z,2.50
2018-07-09T18:42:47.891Z,2.60
2018-07-09T18:45:16.302Z,2.90
2018-07-09T18:47:44.684Z,2.00
2018-07-09T18:50:13.088Z,2.70
2018-07-09T18:52:41.465Z,2.50
2018-07-09T18:55:09.870Z,2.33
2018-07-09T18:57:38.253Z,2.20
2018-07-09T19:00:06.811Z,3.47
2018-07-09T19:02:35.196Z,2.80
2018-07-09T19:05:03.623Z,2.20
2018-07-09T19:07:32.305Z,2.67
2018-07-09T19:10:00.826Z,4.40
2018-07-09T19:12:33.579Z,3.13
2018-07-09T19:15:02.024Z,3.63
2018-07-09T19:18:10.073Z,3.10
2018-07-09T19:21:52.202Z,2.80
2018-07-09T19:24:19.630Z,3.73
2018-07-09T19:26:47.031Z,2.23
2018-07-09T19:29:14.415Z,3.57
2018-07-09T19:31:48.231Z,3.00
2018-07-09T19:34:15.591Z,3.40
2018-07-09T19:36:42.995Z,3.30
2018-07-09T19:39:11.216Z,2.30
2018-07-09T19:41:38.642Z,2.83
2018-07-09T19:44:06.044Z,2.63
2018-07-09T19:46:33.491Z,2.57
2018-07-09T19:49:00.826Z,3.70
2018-07-09T19:51:28.179Z,2.43
2018-07-09T19:53:55.533Z,2.53
2018-07-09T19:56:22.974Z,2.60
2018-07-09T19:58:50.366Z,2.10
2018-07-09T20:01:17.762Z,2.10
2018-07-09T20:03:45.086Z,2.10
2018-07-09T20:06:12.433Z,3.40
2018-07-09T20:08:45.206Z,2.70
2018-07-09T20:11:17.916Z,2.13
2018-07-09T20:13:51.383Z,2.90
2018-07-09T20:16:24.041Z,2.80
2018-07-09T20:18:52.991Z,2.40
2018-07-09T20:21:20.351Z,2.80
2018-07-09T20:23:47.663Z,2.33
2018-07-09T20:26:14.998Z,3.03
2018-07-09T20:28:42.310Z,2.20
2018-07-09T20:31:09.694Z,2.17
2018-07-09T20:33:37.026Z,2.63
2018-07-09T20:36:04.358Z,2.07
2018-07-09T20:38:31.684Z,2.20
2018-07-09T20:40:59.316Z,2.70
2018-07-09T20:43:26.640Z,2.47
2018-07-09T20:45:53.988Z,3.37
2018-07-09T20:48:21.451Z,2.80
2018-07-09T20:50:48.934Z,2.63
2018-07-09T20:53:16.457Z,2.60
2018-07-09T20:55:43.795Z,2.60
2018-07-09T20:58:11.115Z,3.90
2018-07-09T21:00:38.456Z,4.23
2018-07-09T21:03:06.394Z,3.20
2018-07-09T21:05:33.863Z,2.27
2018-07-09T21:08:01.216Z,2.30
2018-07-09T21:10:28.536Z,2.77
2018-07-09T21:12:55.883Z,2.50
2018-07-09T21:15:23.782Z,2.20
2018-07-09T21:17:51.060Z,2.30
2018-07-09T21:20:19.021Z,3.63
2018-07-09T21:22:46.903Z,2.00
2018-07-09T21:25:14.825Z,2.90
2018-07-09T21:27:42.434Z,2.33
2018-07-09T21:30:09.759Z,2.47
2018-07-09T21:32:37.111Z,1.90
2018-07-09T21:35:04.869Z,2.63
2018-07-09T21:37:32.304Z,2.50
2018-07-09T21:39:59.564Z,2.40
2018-07-09T21:42:26.916Z,2.97
2018-07-09T21:44:54.232Z,3.00
2018-07-09T21:47:21.575Z,2.67
2018-07-09T21:49:48.886Z,2.70
2018-07-09T21:52:16.226Z,3.30
2018-07-09T21:54:43.623Z,2.77
2018-07-09T21:57:11.111Z,3.50
2018-07-09T21:59:38.426Z,2.67
2018-07-09T22:02:05.771Z,2.50
2018-07-09T22:04:33.105Z,2.90
2018-07-09T22:07:00.447Z,2.30
2018-07-09T22:09:27.766Z,2.80
2018-07-09T22:11:55.110Z,2.70
2018-07-09T22:14:22.428Z,2.77
2018-07-09T22:16:49.774Z,2.80
2018-07-09T22:19:17.095Z,2.70
2018-07-09T22:21:44.862Z,2.07
2018-07-09T22:24:12.187Z,2.63
2018-07-09T22:26:39.528Z,2.97
2018-07-09T22:29:06.847Z,2.80
2018-07-09T22:31:35.252Z,2.90
2018-07-09T22:34:03.631Z,2.90
2018-07-09T22:36:32.021Z,3.80
2018-07-09T22:39:00.401Z,2.47
2018-07-09T22:41:28.786Z,2.77
2018-07-09T22:44:08.547Z,2.80
2018-07-09T22:46:36.950Z,2.67
2018-07-09T22:49:05.539Z,2.37
2018-07-09T22:51:33.943Z,2.40
2018-07-09T22:54:02.319Z,3.07
2018-07-09T22:56:30.692Z,2.60
2018-07-09T22:58:59.096Z,2.33
2018-07-09T23:01:27.475Z,2.73
2018-07-09T23:03:55.879Z,2.63
2018-07-09T23:06:24.350Z,2.70
2018-07-09T23:12:27.198Z,2.77
2018-07-09T23:17:12.675Z,3.07
2018-07-09T23:21:58.804Z,2.73
2018-07-09T23:24:26.672Z,2.70
2018-07-09T23:26:54.514Z,2.10
2018-07-09T23:29:21.865Z,3.07
2018-07-09T23:31:49.526Z,2.23
2018-07-09T23:34:17.528Z,2.50
2018-07-09T23:36:44.954Z,2.53
2018-07-09T23:39:12.545Z,2.03
2018-07-09T23:41:39.861Z,3.13
2018-07-09T23:44:07.224Z,3.30
2018-07-09T23:46:34.580Z,2.03
2018-07-09T23:49:01.924Z,2.60
2018-07-09T23:51:29.243Z,2.70
2018-07-09T23:53:56.589Z,3.17
2018-07-09T23:56:38.169Z,2.40
2018-07-09T23:59:45.247Z,4.33
